createdAt,value
2024-02-26T00:02:20.534Z,95293.22
2024-02-26T00:04:49.894Z,95295.78
2024-02-26T00:07:17.939Z,95288.78
2024-02-26T00:09:45.884Z,95291.47
2024-02-26T00:12:13.896Z,95285.53
2024-02-26T00:14:42.443Z,95290.28
2024-02-26T00:17:10.418Z,95282.19
2024-02-26T00:19:38.500Z,95281.50
2024-02-26T00:22:07.885Z,95282.75
2024-02-26T00:24:35.878Z,95285.53
2024-02-26T00:27:04.592Z,95272.75
2024-02-26T00:29:33.557Z,95279.13
2024-02-26T00:32:01.552Z,95280.22
2024-02-26T00:34:29.697Z,95283.94
2024-02-26T00:36:57.713Z,95278.16
2024-02-26T00:39:27.078Z,95278.63
2024-02-26T00:41:55.083Z,95282.97
2024-02-26T00:44:23.153Z,95275.00
2024-02-26T00:46:51.165Z,95271.84
2024-02-26T00:49:19.182Z,95275.22
2024-02-26T00:51:47.141Z,95268.63
2024-02-26T00:54:15.194Z,95260.94
2024-02-26T00:56:44.539Z,95264.88
2024-02-26T00:59:12.562Z,95264.69
2024-02-26T01:01:40.585Z,95260.84
2024-02-26T01:04:08.698Z,95267.25
2024-02-26T01:06:36.862Z,95263.28
2024-02-26T01:09:05.129Z,95273.16
2024-02-26T01:11:33.163Z,95273.16
2024-02-26T01:14:02.494Z,95269.13
2024-02-26T01:16:32.026Z,95273.16
2024-02-26T01:19:00.191Z,95268.44
2024-02-26T01:21:30.488Z,95262.44
2024-02-26T01:23:58.546Z,95263.31
2024-02-26T01:26:26.551Z,95263.78
2024-02-26T01:28:56.077Z,95255.44
2024-02-26T01:31:25.356Z,95264.09
2024-02-26T01:33:53.978Z,95265.69
2024-02-26T01:36:22.341Z,95271.84
2024-02-26T01:38:50.338Z,95270.00
2024-02-26T01:41:18.434Z,95267.94
2024-02-26T01:43:46.396Z,95262.13
2024-02-26T01:46:16.264Z,95269.00
2024-02-26T01:48:46.701Z,95274.09
2024-02-26T01:51:15.947Z,95272.94
2024-02-26T01:53:44.475Z,95274.13
2024-02-26T01:56:12.947Z,95270.66
2024-02-26T01:58:40.958Z,95263.88
2024-02-26T02:01:09.017Z,95263.38
2024-02-26T02:03:37.110Z,95260.16
2024-02-26T02:06:06.853Z,95258.84
2024-02-26T02:08:36.241Z,95256.78
2024-02-26T02:11:04.539Z,95252.84
2024-02-26T02:13:32.538Z,95259.44
2024-02-26T02:16:00.494Z,95261.50
2024-02-26T02:18:28.487Z,95260.44
2024-02-26T02:21:00.670Z,95261.59
2024-02-26T02:23:28.666Z,95265.22
2024-02-26T02:25:57.266Z,95265.84
2024-02-26T02:28:26.258Z,95266.31
2024-02-26T02:30:54.511Z,95265.22
2024-02-26T02:33:23.268Z,95264.25
2024-02-26T02:35:53.493Z,95258.16
2024-02-26T02:38:24.406Z,95250.09
2024-02-26T02:40:52.369Z,95242.88
2024-02-26T02:43:20.329Z,95241.22
2024-02-26T02:45:48.290Z,95248.66
2024-02-26T02:48:16.428Z,95244.53
2024-02-26T02:50:44.750Z,95249.34
2024-02-26T02:53:12.766Z,95239.31
2024-02-26T02:55:42.101Z,95229.47
2024-02-26T02:58:10.206Z,95227.44
2024-02-26T03:00:38.267Z,95228.41
2024-02-26T03:03:07.501Z,95226.47
2024-02-26T03:05:35.502Z,95230.19
2024-02-26T03:08:03.504Z,95237.25
2024-02-26T03:10:31.485Z,95232.94
2024-02-26T03:13:00.794Z,95238.84
2024-02-26T03:15:28.801Z,95244.78
2024-02-26T03:17:56.870Z,95249.44
2024-02-26T03:20:24.882Z,95252.56
2024-02-26T03:22:52.892Z,95253.66
2024-02-26T03:25:20.866Z,95251.50
2024-02-26T03:27:48.817Z,95242.47
2024-02-26T03:30:18.283Z,95242.47
2024-02-26T03:32:46.661Z,95240.97
2024-02-26T03:35:14.956Z,95222.41
2024-02-26T03:37:42.963Z,95222.41
2024-02-26T03:40:14.080Z,95231.53
2024-02-26T03:42:42.056Z,95232.09
2024-02-26T03:45:11.166Z,95233.25
2024-02-26T03:47:41.627Z,95224.31
2024-02-26T03:50:10.441Z,95221.16
2024-02-26T03:52:38.590Z,95224.81
2024-02-26T03:55:07.037Z,95216.94
2024-02-26T03:57:35.018Z,95215.38
2024-02-26T04:00:04.393Z,95210.22
2024-02-26T04:02:38.867Z,95224.47
2024-02-26T04:05:11.969Z,95232.44
2024-02-26T04:07:39.937Z,95222.91
2024-02-26T04:10:11.361Z,95217.78
2024-02-26T04:12:40.738Z,95230.06
2024-02-26T04:15:09.671Z,95236.75
2024-02-26T04:17:38.242Z,95239.59
2024-02-26T04:20:09.377Z,95236.34
2024-02-26T04:22:37.332Z,95248.25
2024-02-26T04:25:05.713Z,95235.19
2024-02-26T04:27:33.768Z,95232.84
2024-02-26T04:30:02.063Z,95233.34
2024-02-26T04:32:30.254Z,95228.13
2024-02-26T04:34:58.338Z,95235.00
2024-02-26T04:37:31.995Z,95238.72
2024-02-26T04:40:00.992Z,95239.22
2024-02-26T04:42:29.065Z,95247.63
2024-02-26T04:44:57.452Z,95250.75
2024-02-26T04:47:25.582Z,95244.66
2024-02-26T04:49:54.083Z,95248.88
2024-02-26T04:52:22.861Z,95244.44
2024-02-26T04:54:52.474Z,95241.00
2024-02-26T04:57:20.476Z,95248.69
2024-02-26T04:59:48.550Z,95249.56
2024-02-26T05:02:16.976Z,95257.19
2024-02-26T05:04:45.065Z,95252.78
2024-02-26T05:07:13.726Z,95249.25
2024-02-26T05:09:43.285Z,95249.84
2024-02-26T05:12:12.914Z,95262.50
2024-02-26T05:14:41.490Z,95252.69
2024-02-26T05:17:09.524Z,95253.47
2024-02-26T05:19:37.586Z,95251.91
2024-02-26T05:22:05.671Z,95241.00
2024-02-26T05:24:33.676Z,95243.84
2024-02-26T05:27:02.207Z,95239.09
2024-02-26T05:29:32.001Z,95246.69
2024-02-26T05:32:00.000Z,95239.22
2024-02-26T05:34:28.139Z,95231.28
2024-02-26T05:36:56.280Z,95232.16
2024-02-26T05:39:24.400Z,95228.41
2024-02-26T05:41:52.425Z,95234.56
2024-02-26T05:44:20.496Z,95232.84
2024-02-26T05:46:49.840Z,95251.34
2024-02-26T05:49:17.953Z,95242.31
2024-02-26T05:51:46.015Z,95252.91
2024-02-26T05:54:14.091Z,95255.78
2024-02-26T05:56:42.155Z,95264.22
2024-02-26T05:59:10.188Z,95259.72
2024-02-26T06:01:38.232Z,95268.66
2024-02-26T06:04:07.643Z,95269.81
2024-02-26T06:06:35.892Z,95267.69
2024-02-26T06:09:06.365Z,95266.09
2024-02-26T06:11:34.458Z,95280.44
2024-02-26T06:14:04.238Z,95276.19
2024-02-26T06:16:32.761Z,95273.34
2024-02-26T06:19:01.607Z,95283.59
2024-02-26T06:21:31.294Z,95288.91
2024-02-26T06:24:00.308Z,95285.66
2024-02-26T06:26:29.957Z,95295.19
2024-02-26T06:28:58.076Z,95290.25
2024-02-26T06:31:28.653Z,95294.19
2024-02-26T06:33:57.168Z,95296.78
2024-02-26T06:36:25.538Z,95304.22
2024-02-26T06:38:55.920Z,95303.66
2024-02-26T06:41:28.287Z,95305.38
2024-02-26T06:43:56.412Z,95302.06
2024-02-26T06:46:24.418Z,95310.03
2024-02-26T06:48:55.709Z,95309.94
2024-02-26T06:51:24.410Z,95316.66
2024-02-26T06:53:53.950Z,95327.19
2024-02-26T06:56:21.928Z,95328.69
2024-02-26T06:58:49.939Z,95316.22
2024-02-26T07:01:17.945Z,95324.69
2024-02-26T07:03:46.074Z,95323.81
2024-02-26T07:06:15.235Z,95321.34
2024-02-26T07:08:43.307Z,95320.09
2024-02-26T07:11:12.873Z,95327.75
2024-02-26T07:13:40.882Z,95324.78
2024-02-26T07:16:11.352Z,95330.53
2024-02-26T07:18:39.968Z,95326.19
2024-02-26T07:21:08.138Z,95321.41
2024-02-26T07:23:36.168Z,95332.94
2024-02-26T07:26:04.550Z,95330.75
2024-02-26T07:28:33.886Z,95329.59
2024-02-26T07:31:01.866Z,95330.38
2024-02-26T07:33:29.944Z,95343.28
2024-02-26T07:35:58.108Z,95346.91
2024-02-26T07:38:32.446Z,95349.56
2024-02-26T07:41:10.055Z,95342.41
2024-02-26T07:43:39.518Z,95345.28
2024-02-26T07:46:07.910Z,95356.69
2024-02-26T07:48:36.149Z,95342.03
2024-02-26T07:51:05.575Z,95363.06
2024-02-26T07:53:33.740Z,95354.13
2024-02-26T07:56:01.839Z,95364.09
2024-02-26T07:58:29.911Z,95369.31
2024-02-26T08:00:59.321Z,95368.13
2024-02-26T08:03:27.510Z,95364.06
2024-02-26T08:05:56.307Z,95363.50
2024-02-26T08:08:24.529Z,95354.06
2024-02-26T08:10:52.598Z,95348.75
2024-02-26T08:13:21.016Z,95359.00
2024-02-26T08:15:49.031Z,95351.19
2024-02-26T08:18:18.451Z,95347.84
2024-02-26T08:20:47.188Z,95347.94
2024-02-26T08:23:15.299Z,95356.13
2024-02-26T08:25:43.245Z,95355.41
2024-02-26T08:28:12.408Z,95353.63
2024-02-26T08:30:40.430Z,95357.56
2024-02-26T08:33:08.511Z,95360.88
2024-02-26T08:35:38.022Z,95371.91
2024-02-26T08:38:06.368Z,95370.84
2024-02-26T08:40:34.454Z,95360.53
2024-02-26T08:43:02.516Z,95367.00
2024-02-26T08:45:31.066Z,95366.19
2024-02-26T08:47:59.841Z,95367.38
2024-02-26T08:50:28.032Z,95370.09
2024-02-26T08:52:57.444Z,95372.06
2024-02-26T08:55:25.509Z,95376.03
2024-02-26T08:57:53.821Z,95372.44
2024-02-26T09:00:22.226Z,95378.66
2024-02-26T09:02:50.629Z,95378.00
2024-02-26T09:05:18.840Z,95374.13
2024-02-26T09:07:47.526Z,95375.25
2024-02-26T09:10:17.133Z,95380.72
2024-02-26T09:12:45.372Z,95377.81
2024-02-26T09:15:13.949Z,95379.06
2024-02-26T09:17:42.167Z,95370.59
2024-02-26T09:20:11.409Z,95384.06
2024-02-26T09:22:40.045Z,95385.97
2024-02-26T09:25:08.753Z,95392.13
2024-02-26T09:27:40.869Z,95388.72
2024-02-26T09:30:12.008Z,95373.97
2024-02-26T09:32:40.577Z,95382.97
2024-02-26T09:35:09.442Z,95381.97
2024-02-26T09:37:38.144Z,95380.75
2024-02-26T09:40:07.329Z,95375.91
2024-02-26T09:42:38.270Z,95384.50
2024-02-26T09:45:09.793Z,95369.81
2024-02-26T09:47:38.865Z,95366.03
2024-02-26T09:50:10.150Z,95361.50
2024-02-26T09:52:40.175Z,95363.56
2024-02-26T09:55:10.287Z,95375.03
2024-02-26T09:57:40.280Z,95380.88
2024-02-26T10:00:12.747Z,95375.25
2024-02-26T10:02:41.306Z,95374.50
2024-02-26T10:05:12.494Z,95377.06
2024-02-26T10:07:40.615Z,95382.56
2024-02-26T10:10:09.283Z,95379.56
2024-02-26T10:12:37.307Z,95378.94
2024-02-26T10:15:07.486Z,95380.66
2024-02-26T10:17:36.103Z,95379.72
2024-02-26T10:20:14.733Z,95382.72
2024-02-26T10:22:43.253Z,95395.75
2024-02-26T10:25:11.313Z,95393.25
2024-02-26T10:27:39.354Z,95387.75
2024-02-26T10:30:19.663Z,95379.22
2024-02-26T10:32:48.939Z,95377.47
2024-02-26T10:35:18.847Z,95386.59
2024-02-26T10:37:48.422Z,95380.91
2024-02-26T10:40:17.265Z,95378.22
2024-02-26T10:42:46.680Z,95373.00
2024-02-26T10:45:16.336Z,95377.56
2024-02-26T10:47:44.843Z,95374.88
2024-02-26T10:50:15.334Z,95373.63
2024-02-26T10:52:44.190Z,95374.41
2024-02-26T10:55:19.258Z,95384.47
2024-02-26T10:57:47.854Z,95382.75
2024-02-26T11:00:18.364Z,95378.34
2024-02-26T11:02:46.568Z,95386.50
2024-02-26T11:05:14.713Z,95388.38
2024-02-26T11:07:44.030Z,95384.75
2024-02-26T11:10:13.765Z,95377.53
2024-02-26T11:12:42.142Z,95373.28
2024-02-26T11:15:11.372Z,95360.34
2024-02-26T11:17:40.972Z,95354.34
2024-02-26T11:20:14.052Z,95342.09
2024-02-26T11:22:42.375Z,95336.09
2024-02-26T11:25:12.389Z,95340.97
2024-02-26T11:27:43.421Z,95348.69
2024-02-26T11:30:12.908Z,95347.09
2024-02-26T11:32:42.396Z,95346.41
2024-02-26T11:35:11.750Z,95342.81
2024-02-26T11:37:41.648Z,95341.72
2024-02-26T11:40:13.934Z,95340.72
2024-02-26T11:42:46.306Z,95343.22
2024-02-26T11:45:49.131Z,95345.72
2024-02-26T11:48:19.792Z,95354.34
2024-02-26T11:50:49.961Z,95356.88
2024-02-26T11:53:28.608Z,95362.03
2024-02-26T11:56:28.126Z,95367.69
2024-02-26T11:59:07.937Z,95368.41
2024-02-26T12:01:43.409Z,95371.63
2024-02-26T12:04:16.944Z,95370.31
2024-02-26T12:06:47.372Z,95378.16
2024-02-26T12:09:15.889Z,95369.25
2024-02-26T12:11:44.692Z,95372.41
2024-02-26T12:14:12.794Z,95361.16
2024-02-26T12:16:41.397Z,95371.47
2024-02-26T12:19:11.126Z,95367.81
2024-02-26T12:21:40.603Z,95367.56
2024-02-26T12:24:15.805Z,95363.91
2024-02-26T12:26:44.140Z,95361.69
2024-02-26T12:29:13.117Z,95360.38
2024-02-26T12:31:41.597Z,95367.81
2024-02-26T12:34:11.656Z,95372.53
2024-02-26T12:36:41.636Z,95374.88
2024-02-26T12:39:10.686Z,95384.50
2024-02-26T12:41:40.341Z,95387.75
2024-02-26T12:44:10.094Z,95388.66
2024-02-26T12:46:38.105Z,95392.81
2024-02-26T12:49:06.540Z,95395.88
2024-02-26T12:51:35.513Z,95391.19
2024-02-26T12:54:05.222Z,95399.81
2024-02-26T12:56:33.526Z,95394.81
2024-02-26T12:59:01.654Z,95405.34
2024-02-26T13:01:30.027Z,95404.91
2024-02-26T13:03:58.573Z,95400.44
2024-02-26T13:06:26.810Z,95402.94
2024-02-26T13:08:59.323Z,95401.28
2024-02-26T13:11:30.082Z,95398.69
2024-02-26T13:13:59.004Z,95406.06
2024-02-26T13:16:27.561Z,95391.09
2024-02-26T13:18:55.664Z,95389.69
2024-02-26T13:21:25.793Z,95389.22
2024-02-26T13:23:55.899Z,95385.91
2024-02-26T13:26:25.650Z,95394.56
2024-02-26T13:29:04.495Z,95400.94
2024-02-26T13:31:32.626Z,95409.91
2024-02-26T13:34:00.856Z,95408.81
2024-02-26T13:36:29.134Z,95411.50
2024-02-26T13:38:58.255Z,95418.00
2024-02-26T13:41:26.455Z,95414.78
2024-02-26T13:43:55.037Z,95420.47
2024-02-26T13:46:24.396Z,95419.38
2024-02-26T13:48:52.535Z,95424.53
2024-02-26T13:51:20.628Z,95413.56
2024-02-26T13:53:48.684Z,95399.00
2024-02-26T13:56:16.919Z,95402.56
2024-02-26T13:58:44.946Z,95399.31
2024-02-26T14:01:13.082Z,95401.69
2024-02-26T14:03:42.552Z,95402.38
2024-02-26T14:06:10.937Z,95408.50
2024-02-26T14:08:39.029Z,95410.31
2024-02-26T14:11:07.176Z,95416.56
2024-02-26T14:13:38.382Z,95406.94
2024-02-26T14:16:08.204Z,95403.13
2024-02-26T14:18:36.348Z,95397.75
2024-02-26T14:21:06.194Z,95396.31
2024-02-26T14:23:34.414Z,95395.75
2024-02-26T14:26:02.779Z,95406.59
2024-02-26T14:28:36.413Z,95412.44
2024-02-26T14:31:08.448Z,95414.22
2024-02-26T14:33:36.686Z,95428.56
2024-02-26T14:36:07.125Z,95429.13
2024-02-26T14:38:35.298Z,95429.91
2024-02-26T14:41:03.508Z,95436.28
2024-02-26T14:43:33.003Z,95436.84
2024-02-26T14:46:01.307Z,95430.59
2024-02-26T14:48:30.765Z,95434.25
2024-02-26T14:50:58.917Z,95436.06
2024-02-26T14:53:28.452Z,95441.34
2024-02-26T14:55:56.476Z,95449.59
2024-02-26T14:58:24.502Z,95451.97
2024-02-26T15:00:53.763Z,95451.97
2024-02-26T15:03:21.910Z,95456.69
2024-02-26T15:05:50.145Z,95457.66
2024-02-26T15:08:18.909Z,95458.44
2024-02-26T15:10:49.973Z,95457.91
2024-02-26T15:13:19.456Z,95459.81
2024-02-26T15:15:48.369Z,95465.31
2024-02-26T15:18:18.198Z,95465.53
2024-02-26T15:20:47.416Z,95463.72
2024-02-26T15:23:15.936Z,95467.63
2024-02-26T15:25:44.332Z,95471.09
2024-02-26T15:28:16.230Z,95471.56
2024-02-26T15:30:45.244Z,95467.53
2024-02-26T15:33:14.536Z,95474.03
2024-02-26T15:35:46.127Z,95473.13
2024-02-26T15:38:15.798Z,95478.28
2024-02-26T15:40:45.696Z,95478.16
2024-02-26T15:43:16.522Z,95479.81
2024-02-26T15:45:45.052Z,95493.91
2024-02-26T15:48:13.656Z,95499.09
2024-02-26T15:50:43.520Z,95502.66
2024-02-26T15:53:12.094Z,95505.13
2024-02-26T15:55:41.243Z,95509.59
2024-02-26T15:58:11.975Z,95509.59
2024-02-26T16:00:45.327Z,95505.06
2024-02-26T16:03:13.814Z,95506.94
2024-02-26T16:05:42.747Z,95516.00
2024-02-26T16:08:21.775Z,95513.53
2024-02-26T16:10:50.750Z,95513.28
2024-02-26T16:13:21.237Z,95510.13
2024-02-26T16:15:53.600Z,95513.16
2024-02-26T16:18:22.584Z,95513.03
2024-02-26T16:20:51.412Z,95512.59
2024-02-26T16:23:19.909Z,95513.22
2024-02-26T16:25:51.358Z,95512.13
2024-02-26T16:28:22.631Z,95513.47
2024-02-26T16:30:53.188Z,95520.94
2024-02-26T16:33:21.330Z,95519.69
2024-02-26T16:35:49.432Z,95517.34
2024-02-26T16:38:17.499Z,95524.91
2024-02-26T16:40:45.562Z,95522.91
2024-02-26T16:43:13.522Z,95529.09
2024-02-26T16:45:41.777Z,95537.81
2024-02-26T16:48:11.240Z,95530.09
2024-02-26T16:50:39.360Z,95535.34
2024-02-26T16:53:07.519Z,95530.50
2024-02-26T16:55:35.533Z,95533.50
2024-02-26T16:58:03.606Z,95544.41
2024-02-26T17:00:31.635Z,95540.97
2024-02-26T17:03:01.710Z,95532.50
2024-02-26T17:05:31.107Z,95536.78
2024-02-26T17:07:59.143Z,95535.88
2024-02-26T17:10:27.176Z,95538.41
2024-02-26T17:12:55.167Z,95535.44
2024-02-26T17:15:23.237Z,95539.75
2024-02-26T17:17:51.476Z,95540.53
2024-02-26T17:20:20.011Z,95543.66
2024-02-26T17:22:49.447Z,95545.53
2024-02-26T17:25:18.412Z,95548.22
2024-02-26T17:27:46.396Z,95551.25
2024-02-26T17:30:14.699Z,95553.03
2024-02-26T17:32:42.832Z,95548.59
2024-02-26T17:35:15.071Z,95548.47
2024-02-26T17:37:43.191Z,95555.38
2024-02-26T17:40:13.883Z,95555.38
2024-02-26T17:42:41.972Z,95559.34
2024-02-26T17:45:10.883Z,95555.44
2024-02-26T17:47:39.095Z,95553.22
2024-02-26T17:50:08.127Z,95557.38
2024-02-26T17:52:37.932Z,95562.25
2024-02-26T17:55:06.999Z,95565.69
2024-02-26T17:57:36.524Z,95571.38
2024-02-26T18:00:06.345Z,95577.34
2024-02-26T18:02:34.790Z,95588.22
2024-02-26T18:05:02.874Z,95592.00
2024-02-26T18:07:31.174Z,95594.88
2024-02-26T18:09:59.477Z,95594.88
2024-02-26T18:12:27.791Z,95593.13
2024-02-26T18:14:57.222Z,95604.47
2024-02-26T18:17:25.331Z,95610.28
2024-02-26T18:19:53.659Z,95613.63
2024-02-26T18:22:22.292Z,95616.91
2024-02-26T18:24:50.329Z,95618.50
2024-02-26T18:27:18.336Z,95621.00
2024-02-26T18:29:46.405Z,95624.81
2024-02-26T18:32:16.962Z,95624.16
2024-02-26T18:34:46.111Z,95618.31
2024-02-26T18:37:14.341Z,95626.81
2024-02-26T18:39:42.575Z,95641.31
2024-02-26T18:42:12.264Z,95650.59
2024-02-26T18:44:41.627Z,95647.47
2024-02-26T18:47:09.729Z,95649.06
2024-02-26T18:49:42.958Z,95644.19
2024-02-26T18:52:11.204Z,95647.63
2024-02-26T18:54:40.390Z,95646.41
2024-02-26T18:57:08.875Z,95649.06
2024-02-26T18:59:37.569Z,95656.28
2024-02-26T19:02:06.397Z,95656.78
2024-02-26T19:04:34.387Z,95660.06
2024-02-26T19:07:04.000Z,95662.00
2024-02-26T19:09:32.194Z,95658.22
2024-02-26T19:12:00.269Z,95656.94
2024-02-26T19:14:28.743Z,95650.16
2024-02-26T19:16:56.701Z,95650.34
2024-02-26T19:19:25.010Z,95660.56
2024-02-26T19:21:54.160Z,95654.09
2024-02-26T19:24:23.612Z,95663.88
2024-02-26T19:26:51.752Z,95666.72
2024-02-26T19:29:19.801Z,95661.34
2024-02-26T19:31:47.853Z,95659.16
2024-02-26T19:34:16.027Z,95667.03
2024-02-26T19:36:44.651Z,95665.94
2024-02-26T19:39:12.768Z,95668.75
2024-02-26T19:41:42.190Z,95664.03
2024-02-26T19:44:13.398Z,95669.22
2024-02-26T19:46:41.490Z,95675.38
2024-02-26T19:49:11.842Z,95691.13
2024-02-26T19:51:41.885Z,95695.06
2024-02-26T19:54:10.008Z,95698.22
2024-02-26T19:56:37.999Z,95706.56
2024-02-26T19:59:07.369Z,95713.31
2024-02-26T20:01:35.559Z,95719.94
2024-02-26T20:04:03.642Z,95731.75
2024-02-26T20:06:32.537Z,95729.56
2024-02-26T20:09:00.806Z,95723.41
2024-02-26T20:11:28.805Z,95730.03
2024-02-26T20:13:56.860Z,95725.47
2024-02-26T20:16:26.188Z,95737.72
2024-02-26T20:18:54.576Z,95739.75
2024-02-26T20:21:22.672Z,95733.47
2024-02-26T20:23:50.827Z,95730.78
2024-02-26T20:26:18.916Z,95727.16
2024-02-26T20:28:46.967Z,95726.19
2024-02-26T20:31:14.942Z,95727.22
2024-02-26T20:33:44.878Z,95726.75
2024-02-26T20:36:13.034Z,95742.81
2024-02-26T20:38:41.156Z,95737.47
2024-02-26T20:41:09.255Z,95748.94
2024-02-26T20:43:37.262Z,95747.53
2024-02-26T20:46:06.026Z,95738.41
2024-02-26T20:48:34.316Z,95757.63
2024-02-26T20:51:05.264Z,95759.47
2024-02-26T20:53:33.331Z,95758.94
2024-02-26T20:56:01.572Z,95754.06
2024-02-26T20:58:29.580Z,95757.59
2024-02-26T21:00:57.596Z,95759.69
2024-02-26T21:03:25.726Z,95764.41
2024-02-26T21:05:53.906Z,95764.94
2024-02-26T21:08:32.469Z,95772.59
2024-02-26T21:11:06.972Z,95779.41
2024-02-26T21:13:38.147Z,95775.63
2024-02-26T21:16:07.206Z,95781.69
2024-02-26T21:18:37.768Z,95782.28
2024-02-26T21:21:06.919Z,95779.31
2024-02-26T21:23:37.196Z,95787.03
2024-02-26T21:26:05.653Z,95796.19
2024-02-26T21:28:33.657Z,95803.72
2024-02-26T21:31:01.904Z,95807.66
2024-02-26T21:33:30.121Z,95797.16
2024-02-26T21:35:58.895Z,95795.91
2024-02-26T21:38:32.659Z,95795.56
2024-02-26T21:41:09.254Z,95779.28
2024-02-26T21:43:39.112Z,95780.50
2024-02-26T21:46:07.791Z,95787.03
2024-02-26T21:48:39.450Z,95781.34
2024-02-26T21:51:08.154Z,95779.78
2024-02-26T21:53:36.198Z,95786.31
2024-02-26T21:56:07.700Z,95780.97
2024-02-26T21:58:37.691Z,95788.66
2024-02-26T22:01:06.174Z,95787.28
2024-02-26T22:03:34.664Z,95787.91
2024-02-26T22:06:02.761Z,95780.34
2024-02-26T22:08:30.779Z,95782.84
2024-02-26T22:10:58.860Z,95783.56
2024-02-26T22:13:26.951Z,95788.03
2024-02-26T22:15:56.326Z,95791.09
2024-02-26T22:18:24.454Z,95788.91
2024-02-26T22:20:52.591Z,95803.34
2024-02-26T22:23:20.625Z,95799.56
2024-02-26T22:25:48.774Z,95803.94
2024-02-26T22:28:16.752Z,95807.31
2024-02-26T22:30:45.333Z,95817.38
2024-02-26T22:33:15.101Z,95816.19
2024-02-26T22:35:43.372Z,95821.53
2024-02-26T22:38:11.690Z,95834.38
2024-02-26T22:40:39.917Z,95839.91
2024-02-26T22:43:08.431Z,95851.78
2024-02-26T22:45:36.602Z,95864.81
2024-02-26T22:48:05.459Z,95864.59
2024-02-26T22:50:34.904Z,95863.63
2024-02-26T22:53:02.918Z,95850.56
2024-02-26T22:55:30.883Z,95860.94
2024-02-26T22:57:59.441Z,95859.88
2024-02-26T23:00:28.306Z,95861.84
2024-02-26T23:02:56.728Z,95868.13
2024-02-26T23:05:25.845Z,95881.09
2024-02-26T23:07:56.467Z,95878.50
2024-02-26T23:10:25.178Z,95879.09
2024-02-26T23:12:53.823Z,95883.91
2024-02-26T23:15:22.267Z,95881.66
2024-02-26T23:17:50.436Z,95881.16
2024-02-26T23:20:18.490Z,95883.25
2024-02-26T23:22:48.302Z,95880.69
2024-02-26T23:25:19.909Z,95889.34
2024-02-26T23:27:48.951Z,95899.50
2024-02-26T23:30:19.125Z,95891.22
2024-02-26T23:32:47.419Z,95895.56
2024-02-26T23:35:15.452Z,95906.47
2024-02-26T23:37:43.423Z,95898.75
2024-02-26T23:40:12.155Z,95902.00
2024-02-26T23:42:41.658Z,95911.31
2024-02-26T23:45:10.464Z,95926.50
2024-02-26T23:47:38.618Z,95920.94
2024-02-26T23:50:07.906Z,95925.28
2024-02-26T23:52:35.993Z,95922.78
2024-02-26T23:55:04.089Z,95924.59
2024-02-26T23:57:32.414Z,95919.47
